Flight Track Log - Related Links

Times and Time Zones

All times are in EDT time to prevent confusion due to time zone crossing. See the DAL268 flight status page for this flight to view local times or setup timezone preferences in your user account.

Time Position Orientation Groundspeed Altitude Reporting Facility
EDT Latitude Longitude Course Direction KTS km/h feet Rate Location/Type
Fri 14:56:01 37.6667 -122.3333 35° Northeast 195 360 2.300  Level Northern Cal TRACON
Fri 14:57:01 37.7000 -122.2667 58° Northeast 250 463 5.000 2.750 Climbing Northern Cal TRACON
Fri 14:58:00 37.7059 -122.2775 38° Northeast  Level FlightAware Approximate
Fri 14:58:01 37.7667 -122.2000 38° Northeast 275 509 7.800  Level Northern Cal TRACON
Fri 14:59:00 37.8109 -122.1725 38° Northeast  Level FlightAware Approximate
Fri 15:00:00 37.9160 -122.0674 38° Northeast  Level FlightAware Approximate
Fri 15:00:24 37.9278 -122.0517 36° Northeast 347 642 11.900  Level Oakland Center
Fri 15:01:00 38.0121 -121.9582 35° Northeast  Level FlightAware Approximate
Fri 15:01:26 38.0122 -121.9697 37° Northeast 382 708 14.000  Level Oakland Center
Fri 15:02:27 38.1006 -121.8858 37° Northeast 395 732 16.200 1.805 Climbing Oakland Center
Fri 15:03:29 38.1919 -121.7969 37° Northeast 411 761 17.700 1.659 Climbing Oakland Center
Fri 15:04:30 38.2869 -121.7058 37° Northeast 427 790 19.600 1.967 Climbing Oakland Center
Fri 15:05:31 38.4022 -121.5928 38° Northeast 436 808 21.700 1.854 Climbing Oakland Center
Fri 15:06:33 38.4889 -121.4769 46° Northeast 454 840 23.400 1.610 Climbing Oakland Center
Fri 15:07:34 38.5656 -121.3464 53° Northeast 460 851 25.000 1.415 Climbing Oakland Center
Fri 15:08:36 38.6433 -121.2094 54° Northeast 471 872 26.300 1.366 Climbing Oakland Center
Fri 15:09:37 38.7233 -121.0706 54° Northeast 485 898 27.800 1.268 Climbing Oakland Center
Fri 15:10:39 38.8044 -120.9311 53° Northeast 487 901 28.900 1.268 Climbing Oakland Center
Fri 15:11:40 38.8847 -120.7908 54° Northeast 488 904 30.400 1.366 Climbing Oakland Center
Fri 15:12:42 38.9650 -120.6536 53° Northeast 483 895 31.700 1.220 Climbing Oakland Center
Fri 15:13:43 39.0614 -120.4839 54° Northeast 487 901 32.900 1.366 Climbing Oakland Center
Fri 15:14:45 39.1422 -120.3467 53° Northeast 484 896 34.500 1.268 Climbing Oakland Center
Fri 15:15:46 39.2189 -120.2092 54° Northeast 476 882 35.500 878 Climbing Oakland Center
Fri 15:16:48 39.2986 -120.0683 54° Northeast 475 880 36.300 732 Climbing Oakland Center
Fri 15:17:49 39.3761 -119.9306 54° Northeast 472 874 37.000 341 Climbing Oakland Center
Fri 15:18:51 39.4553 -119.7917 54° Northeast 477 884 37.000  Level Oakland Center
Fri 15:19:52 39.5342 -119.6522 54° Northeast 477 884 37.000  Level Oakland Center
Fri 15:20:54 39.6125 -119.5111 54° Northeast 479 887 37.000  Level Oakland Center
Fri 15:21:55 39.6906 -119.3697 54° Northeast 479 887 37.000  Level Oakland Center
Fri 15:22:57 39.7697 -119.2264 54° Northeast 484 896 37.000  Level Oakland Center
Fri 15:23:58 39.8489 -119.0844 54° Northeast 482 893 37.000  Level Oakland Center
Fri 15:25:00 39.9275 -118.9408 54° Northeast 483 895 37.000  Level Oakland Center
Fri 15:26:01 40.0228 -118.7692 54° Northeast 484 896 37.000  Level Oakland Center
Fri 15:27:03 40.1000 -118.6236 55° Northeast 485 898 37.000  Level Oakland Center
Fri 15:28:04 40.1572 -118.4628 65° Northeast 489 906 37.000  Level Oakland Center
Fri 15:29:00 40.1947 -118.3244 70° East 491 909 37.000  Level Salt Lake Center
Fri 15:30:02 40.2461 -118.1369 70° East 490 908 37.000  Level Salt Lake Center
Fri 15:31:03 40.2892 -117.9744 71° East 493 912 37.000  Level Salt Lake Center
Fri 15:32:05 40.3408 -117.7858 70° East 492 911 37.000  Level Salt Lake Center
Fri 15:33:07 40.3842 -117.6236 71° East 492 911 37.000  Level Salt Lake Center
Fri 15:34:09 40.4353 -117.4331 71° East 493 912 37.000  Level Salt Lake Center
Fri 15:35:11 40.4786 -117.2694 71° East 494 914 37.000  Level Salt Lake Center
Fri 15:36:13 40.5219 -117.1031 71° East 498 922 37.000  Level Salt Lake Center
Fri 15:37:14 40.5747 -116.9081 70° East 499 924 37.000  Level Salt Lake Center
Fri 15:38:16 40.6194 -116.7408 71° East 499 924 37.000  Level Salt Lake Center
Fri 15:39:18 40.6642 -116.5750 70° East 500 925 37.000  Level Salt Lake Center
Fri 15:40:20 40.7150 -116.3817 71° East 499 924 37.000  Level Salt Lake Center
Fri 15:41:21 40.7594 -116.2153 71° East 500 925 37.000  Level Salt Lake Center
Fri 15:42:23 40.8125 -116.0203 70° East 504 933 37.000  Level Salt Lake Center
Fri 15:43:25 40.8567 -115.8556 70° East 500 925 37.000  Level Salt Lake Center
Fri 15:44:27 40.8986 -115.6878 72° East 501 929 37.000  Level Salt Lake Center
Fri 15:45:28 40.9503 -115.4931 71° East 503 932 37.000  Level Salt Lake Center
Fri 15:46:30 40.9936 -115.3261 71° East 501 929 37.000  Level Salt Lake Center
Fri 15:47:32 41.0428 -115.1300 72° East 503 932 37.000  Level Salt Lake Center
Fri 15:48:34 41.0864 -114.9631 71° East 502 930 37.000  Level Salt Lake Center
Fri 15:49:35 41.1275 -114.7914 72° East 501 929 37.000  Level Salt Lake Center
Fri 15:50:37 41.1725 -114.6167 71° East 502 930 37.000  Level Salt Lake Center
Fri 15:51:39 41.2239 -114.4061 72° East 501 929 37.000  Level Salt Lake Center
Fri 15:52:41 41.2669 -114.2306 72° East 501 929 37.000  Level Salt Lake Center
Fri 15:53:42 41.3097 -114.0556 72° East 500 925 37.000  Level Salt Lake Center
Fri 15:54:44 41.3525 -113.8800 72° East 500 925 37.000  Level Salt Lake Center
Fri 15:55:46 41.3822 -113.6967 78° East 505 935 37.000  Level Salt Lake Center
Fri 15:56:48 41.4056 -113.5108 80° East 509 943 37.000  Level Salt Lake Center
Fri 15:57:49 41.4275 -113.3244 81° East 509 943 37.000  Level Salt Lake Center
Fri 15:58:51 41.4556 -113.1017 80° East 508 941 37.000  Level Salt Lake Center
Fri 15:59:53 41.4775 -112.9156 81° East 508 941 37.000  Level Salt Lake Center
Fri 16:00:55 41.5014 -112.7294 80° East 508 941 37.000  Level Salt Lake Center
Fri 16:01:56 41.5239 -112.5431 81° East 508 941 37.000  Level Salt Lake Center
Fri 16:02:58 41.5447 -112.3553 82° East 510 945 37.000  Level Salt Lake Center
Fri 16:04:00 41.5642 -112.1672 82° East 510 945 37.000  Level Salt Lake Center
Fri 16:05:01 41.5836 -111.9783 82° East 511 946 37.000  Level Salt Lake Center
Fri 16:06:03 41.6022 -111.7894 82° East 510 945 37.000  Level Salt Lake Center
Fri 16:07:05 41.6256 -111.5633 82° East 510 945 37.000  Level Salt Lake Center
Fri 16:08:07 41.6433 -111.3761 83° East 508 941 37.000  Level Salt Lake Center
Fri 16:09:08 41.6611 -111.1878 83° East 509 943 37.000  Level Salt Lake Center
Fri 16:10:10 41.6797 -110.9992 82° East 511 946 37.000  Level Salt Lake Center
Fri 16:11:12 41.6975 -110.8083 83° East 509 943 37.000  Level Salt Lake Center
Fri 16:12:13 41.7136 -110.6278 83° East 510 945 37.000  Level Salt Lake Center
Fri 16:13:15 41.7322 -110.4172 83° East 511 946 37.000  Level Salt Lake Center
Fri 16:14:17 41.7483 -110.2381 83° East 509 943 37.000  Level Salt Lake Center
Fri 16:15:19 41.7667 -110.0275 83° East 509 943 37.000  Level Salt Lake Center
Fri 16:16:21 41.7819 -109.8469 83° East 509 943 37.000  Level Salt Lake Center
Fri 16:17:22 41.7994 -109.6367 84° East 507 938 37.000  Level Salt Lake Center
Fri 16:18:24 41.8142 -109.4575 84° East 504 933 37.000  Level Salt Lake Center
Fri 16:19:26 41.8289 -109.2767 84° East 505 935 37.000  Level Salt Lake Center
Fri 16:20:28 41.8444 -109.0650 84° East 507 938 37.000  Level Salt Lake Center
Fri 16:21:30 41.8583 -108.8828 84° East 509 943 37.000  Level Salt Lake Center
Fri 16:22:32 41.8744 -108.6694 84° East 512 948 37.000  Level Salt Lake Center
Fri 16:23:34 41.8867 -108.4869 85° East 511 946 37.000  Level Salt Lake Center
Fri 16:24:35 41.9006 -108.3072 84° East 509 943 37.000  Level Salt Lake Center
Fri 16:25:37 41.9167 -108.0975 84° East 508 941 37.000  Level Salt Lake Center
Fri 16:26:39 41.9258 -107.9131 86° East 515 954 37.000  Level Salt Lake Center
Fri 16:27:41 41.9394 -107.7008 85° East 512 948 37.000  Level Salt Lake Center
Fri 16:28:43 41.9506 -107.5192 85° East 511 946 37.000  Level Salt Lake Center
Fri 16:29:45 41.9636 -107.3061 85° East 513 950 37.000  Level Salt Lake Center
Fri 16:30:46 41.9756 -107.1247 85° East 511 946 37.000  Level Salt Lake Center
Fri 16:31:48 41.9869 -106.9117 86° East 512 948 37.000  Level Salt Lake Center
Fri 16:32:50 41.9972 -106.7283 86° East 514 953 37.000  Level Salt Lake Center
Fri 16:33:52 42.0092 -106.5167 86° East 514 953 37.000  Level Salt Lake Center
Fri 16:34:54 42.0178 -106.3319 86° East 518 959 37.000  Level Salt Lake Center
Fri 16:35:56 42.0292 -106.1461 85° East 522 967 37.000  Level Salt Lake Center
Fri 16:36:57 42.0408 -105.9294 86° East 521 966 37.000  Level Salt Lake Center
Fri 16:38:07 42.0511 -105.7111 86° East 523 969 37.000  Level Denver Center
Fri 16:39:09 42.0594 -105.4939 87° East 523 969 37.000  Level Denver Center
Fri 16:40:11 42.0692 -105.3108 86° East 518 959 37.000  Level Denver Center
Fri 16:41:13 42.0792 -105.0958 86° East 518 959 37.000  Level Denver Center
Fri 16:42:15 42.0969 -104.9139 82° East 516 956 37.000  Level Denver Center
Fri 16:43:17 42.1144 -104.7008 84° East 518 959 37.000  Level Denver Center
Fri 16:44:19 42.1292 -104.5178 84° East 518 959 37.000  Level Denver Center
Fri 16:45:21 42.1481 -104.3028 83° East 522 967 37.000  Level Denver Center
Fri 16:46:22 42.1619 -104.1192 84° East 521 966 37.000  Level Denver Center
Fri 16:47:24 42.1797 -103.9064 83° East 517 958 37.000  Level Denver Center
Fri 16:48:26 42.1939 -103.7225 84° East 519 961 37.000  Level Denver Center
Fri 16:49:28 42.2108 -103.5097 84° East 516 956 37.000  Level Denver Center
Fri 16:50:30 42.2231 -103.3256 85° East 517 958 37.000  Level Denver Center
Fri 16:51:32 42.2397 -103.1103 84° East 520 962 37.000  Level Denver Center
Fri 16:52:34 42.2525 -102.9283 85° East 514 953 37.000  Level Denver Center
Fri 16:53:36 42.2678 -102.7161 84° East 512 948 37.000  Level Denver Center
Fri 16:54:38 42.2797 -102.5350 85° East 508 941 37.000  Level Denver Center
Fri 16:55:40 42.2947 -102.3233 84° East 510 945 37.000  Level Denver Center
Fri 16:56:42 42.3058 -102.1417 85° East 509 943 37.000  Level Denver Center
Fri 16:57:44 42.3186 -101.9297 85° East 510 945 37.000  Level Denver Center
Fri 16:58:45 42.3300 -101.7378 85° East 513 950 37.000  Level Denver Center
Fri 16:59:47 42.3411 -101.5533 85° East 515 954 37.000  Level Denver Center
Fri 17:00:49 42.3536 -101.3367 85° East 518 959 37.000  Level Denver Center
Fri 17:01:52 42.3639 -101.1508 86° East 518 959 37.000  Level Denver Center
Fri 17:02:53 42.3744 -100.9353 86° East 515 954 37.000  Level Denver Center
Fri 17:03:55 42.3844 -100.7511 86° East 513 950 37.000  Level Denver Center
Fri 17:04:57 42.3933 -100.5628 86° East 519 961 37.000  Level Denver Center
Fri 17:05:59 42.4042 -100.3458 86° East 519 961 37.000  Level Denver Center
Fri 17:07:01 42.4128 -100.1589 86° East 519 961 37.000  Level Denver Center
Fri 17:08:03 42.4222 -99.9417 87° East 518 959 37.000  Level Denver Center
Fri 17:09:05 42.4308 -99.7431 87° East 521 966 37.000  Level Denver Center
Fri 17:10:07 42.4394 -99.5472 87° East 520 962 37.000  Level Denver Center
Fri 17:11:09 42.4464 -99.3508 87° East 521 966 37.000  Level Denver Center
Fri 17:12:11 42.4539 -99.1531 87° East 523 969 37.000  Level Denver Center
Fri 17:13:16 42.4636 -98.9153 87° East 526 974 37.000  Level Minneapolis Center
Fri 17:14:18 42.4689 -98.7158 88° East 529 980 37.000  Level Minneapolis Center
Fri 17:15:20 42.4778 -98.5147 87° East 532 985 37.000  Level Minneapolis Center
Fri 17:16:22 42.4889 -98.3136 86° East 533 987 37.000  Level Minneapolis Center
Fri 17:17:24 42.4978 -98.1111 87° East 536 993 37.000  Level Minneapolis Center
Fri 17:18:26 42.5069 -97.9094 86° East 535 991 37.000  Level Minneapolis Center
Fri 17:19:28 42.5175 -97.6878 86° East 531 983 37.000  Level Minneapolis Center
Fri 17:20:30 42.5261 -97.4856 87° East 535 991 37.000  Level Minneapolis Center
Fri 17:21:32 42.5342 -97.2839 87° East 536 993 37.000  Level Minneapolis Center
Fri 17:22:34 42.5419 -97.0822 87° East 536 993 37.000  Level Minneapolis Center
Fri 17:23:36 42.5486 -96.8811 87° East 535 991 37.000  Level Minneapolis Center
Fri 17:24:37 42.5558 -96.6772 87° East 538 996 37.000  Level Minneapolis Center
Fri 17:25:39 42.5636 -96.4336 87° East 537 995 37.000  Level Minneapolis Center
Fri 17:26:41 42.5697 -96.2442 87° East 538 996 37.000  Level Minneapolis Center
Fri 17:27:43 42.5761 -96.0256 88° East 542 1004 37.000  Level Minneapolis Center
Fri 17:28:45 42.5814 -95.8211 88° East 541 1003 37.000  Level Minneapolis Center
Fri 17:29:47 42.5875 -95.6194 88° East 537 995 37.000  Level Minneapolis Center
Fri 17:30:49 42.5911 -95.4144 89° East 539 998 37.000  Level Minneapolis Center
Fri 17:31:51 42.5969 -95.1936 88° East 537 995 37.000  Level Minneapolis Center
Fri 17:32:53 42.5997 -95.0119 89° East 534 990 37.000  Level Minneapolis Center
Fri 17:33:54 42.6036 -94.7739 89° East 529 980 37.000  Level Minneapolis Center
Fri 17:34:56 42.6064 -94.5756 89° East 527 975 37.000  Level Minneapolis Center
Fri 17:35:58 42.6086 -94.3656 89° East 530 982 37.000  Level Minneapolis Center
Fri 17:37:00 42.6111 -94.1678 89° East 529 980 37.000  Level Minneapolis Center
Fri 17:38:02 42.6128 -93.9714 89° East 526 974 37.000  Level Minneapolis Center
Fri 17:39:04 42.6136 -93.7742 90° East 528 978 37.000  Level Minneapolis Center
Fri 17:40:05 42.6147 -93.5758 89° East 529 980 37.000  Level Minneapolis Center
Fri 17:41:07 42.6161 -93.3383 89° East 529 980 37.000  Level Minneapolis Center
Fri 17:42:09 42.6156 -93.1411 90° East 528 978 37.000  Level Minneapolis Center
Fri 17:42:55 42.6153 -92.9825 90° East 527 975 37.000  Level Chicago Center
Fri 17:43:57 42.6153 -92.7844 90° East 527 975 37.000  Level Chicago Center
Fri 17:44:59 42.6147 -92.5889 90° East 525 972 37.000  Level Chicago Center
Fri 17:46:01 42.6133 -92.3917 90° East 525 972 37.000  Level Chicago Center
Fri 17:47:04 42.6114 -92.1950 91° East 526 974 37.000  Level Chicago Center
Fri 17:48:06 42.6086 -91.9600 91° East 527 975 37.000  Level Chicago Center
Fri 17:49:08 42.6064 -91.7644 91° East 527 975 37.000  Level Chicago Center
Fri 17:50:10 42.6064 -91.5700 90° East 531 983 37.000  Level Chicago Center
Fri 17:51:12 42.6033 -91.3378 91° East 528 978 37.000  Level Chicago Center
Fri 17:52:14 42.5992 -91.1403 92° East 531 983 37.000  Level Chicago Center
Fri 17:53:16 42.5942 -90.9433 92° East 530 982 37.000  Level Chicago Center
Fri 17:54:18 42.5900 -90.7442 92° East 534 990 37.000  Level Chicago Center
Fri 17:55:20 42.5869 -90.5444 91° East 534 990 37.000  Level Chicago Center
Fri 17:56:22 42.5800 -90.3050 92° East 536 993 37.000  Level Chicago Center
Fri 17:57:25 42.5744 -90.1047 92° East 536 993 37.000  Level Chicago Center
Fri 17:58:27 42.5683 -89.8894 92° East 536 993 37.000  Level Chicago Center
Fri 17:59:29 42.5625 -89.6881 92° East 538 996 37.000  Level Chicago Center
Fri 18:00:31 42.5567 -89.4867 92° East 538 996 37.000  Level Chicago Center
Fri 18:01:33 42.5492 -89.2856 93° East 538 996 37.000  Level Chicago Center
Fri 18:02:35 42.5419 -89.0428 92° East 540 999 37.000  Level Chicago Center
Fri 18:03:37 42.5347 -88.8447 93° East 533 987 37.000  Level Chicago Center
Fri 18:04:39 42.5272 -88.6428 93° East 537 995 37.000  Level Chicago Center
Fri 18:05:41 42.5192 -88.4372 93° East 545 1009 37.000  Level Chicago Center
Fri 18:06:43 42.5097 -88.2347 94° East 546 1011 37.000  Level Chicago Center
Fri 18:07:45 42.5006 -87.9919 93° East 542 1004 37.000  Level Chicago Center
Fri 18:08:48 42.4992 -87.7886 90° East 542 1004 37.000  Level Chicago Center
Fri 18:09:50 42.4992 -87.5961 90° East 544 1007 37.000  Level Chicago Center
Fri 18:10:52 42.4983 -87.3906 90° East 545 1009 37.000  Level Chicago Center
Fri 18:11:54 42.4967 -87.1428 90° East 549 1017 37.000  Level Chicago Center
Fri 18:12:56 42.4944 -86.9353 91° East 551 1020 37.000  Level Chicago Center
Fri 18:13:58 42.4928 -86.7292 91° East 550 1019 37.000  Level Chicago Center
Fri 18:15:00 42.4914 -86.5061 90° East 553 1024 37.000  Level Chicago Center
Fri 18:16:02 42.4875 -86.2992 91° East 553 1024 37.000  Level Chicago Center
Fri 18:17:04 42.4844 -86.0925 91° East 555 1028 37.000  Level Chicago Center
Fri 18:18:06 42.4814 -85.8867 91° East 553 1024 37.000  Level Chicago Center
Fri 18:19:08 42.4767 -85.6781 92° East 558 1033 37.000  Level Chicago Center
Fri 18:20:10 42.4717 -85.4278 91° East 560 1036 37.000  Level Chicago Center
Fri 18:21:13 42.4672 -85.2194 92° East 558 1033 37.000  Level Chicago Center
Fri 18:22:16 42.4622 -85.0097 92° East 559 1035 37.000  Level Chicago Center
Fri 18:23:17 42.4564 -84.8017 92° East 558 1033 37.000  Level Chicago Center
Fri 18:24:19 42.4511 -84.5917 92° East 560 1036 37.000  Level Chicago Center
Fri 18:25:21 42.4428 -84.3428 93° East 557 1032 37.000  Level Chicago Center
Fri 18:26:23 42.4361 -84.1328 92° East 559 1035 37.000  Level Chicago Center
Fri 18:27:25 42.4294 -83.9242 92° East 558 1033 37.000  Level Chicago Center
Fri 18:28:44 42.4175 -83.6475 93° East 559 1035 37.000  Level Cleveland Center
Fri 18:29:46 42.4100 -83.4447 93° East 559 1035 37.000  Level Cleveland Center
Fri 18:30:48 42.4000 -83.2175 93° East 560 1036 37.000  Level Cleveland Center
Fri 18:31:51 42.3903 -83.0075 94° East 557 1032 37.000  Level Cleveland Center
Fri 18:32:53 42.3811 -82.7989 93° East 556 1030 37.000  Level Cleveland Center
Fri 18:33:55 42.3711 -82.5486 93° East 555 1028 37.000  Level Cleveland Center
Fri 18:34:57 42.3625 -82.3397 93° East 557 1032 37.000  Level Cleveland Center
Fri 18:35:59 42.3542 -82.1325 93° East 555 1028 37.000  Level Cleveland Center
Fri 18:37:01 42.3461 -81.9319 93° East 558 1033 37.000  Level Cleveland Center
Fri 18:38:03 42.3339 -81.6864 94° East 557 1032 37.000  Level Cleveland Center
Fri 18:39:05 42.3244 -81.4761 93° East 555 1028 37.000  Level Cleveland Center
Fri 18:40:07 42.3150 -81.2706 93° East 545 1009 37.000  Level Cleveland Center
Fri 18:41:09 42.3050 -81.0689 94° East 535 991 37.000  Level Cleveland Center
Fri 18:42:11 42.2947 -80.8678 94° East 531 983 37.000  Level Cleveland Center
Fri 18:43:13 42.2531 -80.6789 107° East 520 962 37.000  Level Cleveland Center
Fri 18:44:15 42.1614 -80.5381 131° Southeast 500 925 37.000  Level Cleveland Center
Fri 18:45:17 42.0667 -80.4003 133° Southeast 497 921 37.000  Level Cleveland Center
Fri 18:46:19 41.9978 -80.2328 119° Southeast 524 970 37.000  Level Cleveland Center
Fri 18:47:22 42.0144 -80.0022 84° East 540 999 37.000  Level Cleveland Center
Fri 18:48:24 42.0553 -79.8008 75° East 540 999 37.000  Level Cleveland Center
Fri 18:49:26 42.0892 -79.6083 77° East 533 987 37.000  Level Cleveland Center
Fri 18:50:28 42.0833 -79.4100 92° East 531 983 37.000  Level Cleveland Center
Fri 18:51:30 42.0575 -79.2186 100° East 524 970 37.000  Level Cleveland Center
Fri 18:52:32 42.0314 -79.0264 100° East 524 970 37.000  Level Cleveland Center
Fri 18:53:34 41.9994 -78.7967 101° East 522 967 37.000  Level Cleveland Center
Fri 18:54:36 41.9722 -78.6000 100° East 532 985 37.000  Level Cleveland Center
Fri 18:55:38 41.9453 -78.4036 100° East 536 993 37.000  Level Cleveland Center
Fri 18:57:33 41.8906 -78.0403 101° East 534 990 37.000  Level New York Center
Fri 18:58:33 41.8558 -77.8219 102° East 539 998 37.000  Level New York Center
Fri 18:59:33 41.8083 -77.6361 109° East 544 1007 37.000  Level New York Center
Fri 19:00:33 41.7586 -77.4503 110° East 533 987 37.000  Level New York Center
Fri 19:01:33 41.7083 -77.2672 110° East 533 987 37.000  Level New York Center
Fri 19:02:33 41.6581 -77.0792 110° East 533 987 37.000  Level New York Center
Fri 19:03:33 41.6092 -76.8942 109° East 528 978 37.000  Level New York Center
Fri 19:04:33 41.5581 -76.7119 110° East 522 967 37.000  Level New York Center
Fri 19:05:33 41.5161 -76.5531 109° East 517 958 37.000  Level New York Center
Fri 19:06:33 41.4644 -76.3686 110° East 517 958 37.000 -1.000 Level New York Center
Fri 19:07:33 41.4092 -76.1678 110° East 524 970 35.000 -2.400 Descending New York Center
Fri 19:08:33 41.3569 -75.9839 111° Southeast 526 974 32.200 -2.800 Descending New York Center
Fri 19:09:33 41.3061 -75.8086 111° Southeast 515 954 29.400 -2.500 Descending New York Center
Fri 19:10:33 41.2550 -75.6364 111° Southeast 510 945 27.200 -2.150 Descending New York Center
Fri 19:11:33 41.2011 -75.4753 114° Southeast 497 921 25.100 -2.050 Descending New York Center
Fri 19:12:33 41.1489 -75.3203 114° Southeast 472 874 23.100 -1.041 Descending New York Center
Fri 19:13:34 41.0944 -75.1650 115° Southeast 461 855 23.000 -50 Descending New York Center
Fri 19:14:33 41.0419 -75.0078 114° Southeast 461 855 23.000  Level New York Center
Fri 19:15:33 40.9933 -74.8478 112° Southeast 466 863 23.000 -50 Level New York Center
Fri 19:16:33 40.9722 -74.6681 99° East 478 885 22.900 -650 Descending New York Center
Fri 19:17:33 40.9531 -74.4856 98° East 483 895 21.700 -1.450 Descending New York Center
Fri 19:18:33 40.9356 -74.3144 98° East 489 906 20.000 -1.350 Descending New York Center
Fri 19:19:33 40.9153 -74.1567 100° East 470 871 19.000 -1.050 Descending New York Center
Fri 19:20:33 40.8467 -74.0792 139° Southeast 337 624 17.900 -1.350 Descending New York Center
Fri 19:21:33 40.7725 -74.0456 161° South 313 579 16.300 -1.650 Descending New York Center
Fri 19:22:33 40.6839 -74.0111 164° South 305 565 14.600 -1.600 Descending New York Center
Fri 19:23:33 40.6139 -73.9778 160° South 300 555 13.100 -1.700 Descending New York Center
Fri 19:24:33 40.5392 -73.8925 139° Southeast 305 565 11.200 -1.750 Descending New York Center
Fri 19:25:33 40.4786 -73.8161 136° Southeast 309 573 9.600 -1.600 Descending New York Center
Fri 19:26:33 40.4458 -73.7108 112° Southeast 309 573 8.000 -1.350 Descending New York Center
Fri 19:27:33 40.4317 -73.6147 101° East 295 546 6.900 -1.139 Descending New York Center
Fri 19:28:50 40.5000 -73.5000 52° Northeast 300 555 5.400 -1.099 Descending New York TRACON
Fri 19:29:44 40.5667 -73.4833 11° North 264 489 4.500 -1.200 Descending New York TRACON
Fri 19:30:50 40.6500 -73.4667 North 270 501 3.000 -667 Descending New York TRACON
Fri 19:31:50 40.7167 -73.4833 349° North 267 494 3.100 -150 Climbing New York TRACON
Fri 19:32:50 40.7500 -73.5500 303° West 232 430 2.700 -579 Descending New York TRACON
Fri 19:33:44 40.7833 -73.6167 303° West 225 417 2.000 -316 Descending New York TRACON
Fri 19:34:44 40.7667 -73.6667 246° West 153 283 2.100 -100 Climbing New York TRACON
Fri 19:35:44 40.7167 -73.7000 207° Southwest 152 282 1.800 -450 Descending New York TRACON
Fri 19:36:44 40.7000 -73.7167 217° Southwest 115 212 1.200 -600 Descending New York TRACON
Fri 19:37:44 40.6667 -73.7333 201° Southwest 114 211 600 -600 Descending New York TRACON

Login

Don't have an account? Register now (free) for customized features, flight alerts, and more!